ローマ/フィウミチーノ の空港の天気 - METARとTAF

ローマ・レオナルド・ダ・ビンチ国際空港 ( LIRF / FCO ) - イタリア ローマ
飛行場実況気象(Metar)
観測時間06/23 03:20 CEST (06/23 01:20 UTC)
風向・風速不定 1m/s
視程10km以上
天気現象
なし
気温20℃
湿度94%
気圧1019hPa
METARLIRF 230120Z VRB02KT CAVOK 20/19 Q1019 NOSIG
過去の天気等 Google飛行場航空写真 Wunderground天気予報

過去48時間のMETAR

飛行場予報(TAF)
発表時間: 6/23 01:00 CEST (6/22 23:00 UTC)
予報対象時間: 23日2時 CEST ~ 24日8時 CEST
風向・風速不定 3m/s
視程10km以上
なし
23日2時 CEST ~ 23日7時 CEST に一時的に
視程3,000m
天気現象もや
23日10時 CEST ~ 23日12時 CEST に徐々に
風向・風速西南西 7m/s
23日20時 CEST ~ 23日22時 CEST に徐々に
風向・風速不定 2m/s
24日1時 CEST ~ 24日6時 CEST に一時的に
視程1,500m
天気現象散在した霧
TAF LIRF 222300Z 2300/2406 VRB05KT CAVOK
TEMPO 2300/2305 3000 BR
BECMG 2308/2310 25013KT
BECMG 2318/2320 VRB04KT
TEMPO 2323/2404 1500 BCFG